sensor_id;sensor_type;location;lat;lon;timestamp;pressure;altitude;pressure_sealevel;temperature;humidity
63111;BME280;49201;53.426;10.300;2023-06-14T00:00:13;101958.84;;;15.62;100.00
63111;BME280;49201;53.426;10.300;2023-06-14T00:02:40;101968.22;;;15.56;100.00
63111;BME280;49201;53.426;10.300;2023-06-14T00:05:06;101972.44;;;15.51;100.00
63111;BME280;49201;53.426;10.300;2023-06-14T00:07:36;101966.47;;;15.56;100.00
63111;BME280;49201;53.426;10.300;2023-06-14T00:10:04;101957.78;;;15.51;100.00
63111;BME280;49201;53.426;10.300;2023-06-14T00:12:30;101956.97;;;15.54;100.00
63111;BME280;49201;53.426;10.300;2023-06-14T00:14:56;101952.53;;;15.45;100.00
63111;BME280;49201;53.426;10.300;2023-06-14T00:17:22;101948.13;;;15.40;100.00
63111;BME280;49201;53.426;10.300;2023-06-14T00:19:48;101943.88;;;15.42;100.00
63111;BME280;49201;53.426;10.300;2023-06-14T00:22:13;101942.09;;;15.39;100.00
63111;BME280;49201;53.426;10.300;2023-06-14T00:24:38;101940.41;;;15.41;100.00
63111;BME280;49201;53.426;10.300;2023-06-14T00:27:04;101944.69;;;15.39;100.00
63111;BME280;49201;53.426;10.300;2023-06-14T00:29:30;101948.81;;;15.31;100.00
63111;BME280;49201;53.426;10.300;2023-06-14T00:31:56;101935.97;;;15.34;100.00
63111;BME280;49201;53.426;10.300;2023-06-14T00:34:21;101941.06;;;15.31;100.00
63111;BME280;49201;53.426;10.300;2023-06-14T00:36:47;101936.00;;;15.36;100.00
63111;BME280;49201;53.426;10.300;2023-06-14T00:39:13;101939.31;;;15.30;100.00
63111;BME280;49201;53.426;10.300;2023-06-14T00:41:39;101945.34;;;15.31;100.00
63111;BME280;49201;53.426;10.300;2023-06-14T00:44:05;101942.69;;;15.26;100.00
63111;BME280;49201;53.426;10.300;2023-06-14T00:46:30;101956.41;;;15.24;100.00
63111;BME280;49201;53.426;10.300;2023-06-14T00:48:56;101951.25;;;15.24;100.00
63111;BME280;49201;53.426;10.300;2023-06-14T00:51:22;101947.69;;;15.17;100.00
63111;BME280;49201;53.426;10.300;2023-06-14T00:53:48;101956.31;;;15.19;100.00
63111;BME280;49201;53.426;10.300;2023-06-14T00:56:14;101956.28;;;15.16;100.00
63111;BME280;49201;53.426;10.300;2023-06-14T00:58:41;101958.81;;;15.15;100.00
63111;BME280;49201;53.426;10.300;2023-06-14T01:01:07;101956.19;;;15.13;100.00
63111;BME280;49201;53.426;10.300;2023-06-14T01:03:33;101950.97;;;15.10;100.00
63111;BME280;49201;53.426;10.300;2023-06-14T01:06:11;101951.81;;;15.09;100.00
63111;BME280;49201;53.426;10.300;2023-06-14T01:09:01;101956.09;;;15.07;100.00
63111;BME280;49201;53.426;10.300;2023-06-14T01:11:34;101953.53;;;15.07;100.00
63111;BME280;49201;53.426;10.300;2023-06-14T01:14:02;101946.59;;;15.05;100.00
63111;BME280;49201;53.426;10.300;2023-06-14T01:16:29;101956.00;;;15.03;100.00
63111;BME280;49201;53.426;10.300;2023-06-14T01:18:56;101945.66;;;15.03;100.00
63111;BME280;49201;53.426;10.300;2023-06-14T01:21:24;101952.38;;;14.95;100.00
63111;BME280;49201;53.426;10.300;2023-06-14T01:23:51;101964.47;;;14.97;100.00
63111;BME280;49201;53.426;10.300;2023-06-14T01:26:24;101957.50;;;14.92;100.00
63111;BME280;49201;53.426;10.300;2023-06-14T01:28:52;101955.00;;;14.96;100.00
63111;BME280;49201;53.426;10.300;2023-06-14T01:31:24;101964.47;;;14.96;100.00
63111;BME280;49201;53.426;10.300;2023-06-14T01:33:51;101956.63;;;14.91;100.00
63111;BME280;49201;53.426;10.300;2023-06-14T01:36:18;101962.47;;;14.83;100.00
63111;BME280;49201;53.426;10.300;2023-06-14T01:38:45;101961.56;;;14.79;100.00
63111;BME280;49201;53.426;10.300;2023-06-14T01:41:11;101958.97;;;14.79;100.00
63111;BME280;49201;53.426;10.300;2023-06-14T01:43:39;101968.44;;;14.80;100.00
63111;BME280;49201;53.426;10.300;2023-06-14T01:46:06;101971.00;;;14.79;100.00
63111;BME280;49201;53.426;10.300;2023-06-14T01:48:31;101970.00;;;14.72;100.00
63111;BME280;49201;53.426;10.300;2023-06-14T01:50:57;101971.03;;;14.80;100.00
63111;BME280;49201;53.426;10.300;2023-06-14T01:53:22;101970.06;;;14.77;100.00
63111;BME280;49201;53.426;10.300;2023-06-14T01:55:48;101966.66;;;14.76;100.00
63111;BME280;49201;53.426;10.300;2023-06-14T01:58:15;101966.53;;;14.72;100.00
63111;BME280;49201;53.426;10.300;2023-06-14T02:00:43;101961.19;;;14.61;100.00
63111;BME280;49201;53.426;10.300;2023-06-14T02:03:11;101959.34;;;14.56;100.00
63111;BME280;49201;53.426;10.300;2023-06-14T02:05:37;101971.41;;;14.58;100.00
63111;BME280;49201;53.426;10.300;2023-06-14T02:08:04;101966.03;;;14.48;100.00
63111;BME280;49201;53.426;10.300;2023-06-14T02:10:30;101968.72;;;14.52;100.00
63111;BME280;49201;53.426;10.300;2023-06-14T02:12:56;101964.22;;;14.44;100.00
63111;BME280;49201;53.426;10.300;2023-06-14T02:15:21;101966.88;;;14.47;100.00
63111;BME280;49201;53.426;10.300;2023-06-14T02:17:47;101976.25;;;14.43;100.00
63111;BME280;49201;53.426;10.300;2023-06-14T02:20:15;101973.63;;;14.42;100.00
63111;BME280;49201;53.426;10.300;2023-06-14T02:22:42;101971.81;;;14.38;100.00
63111;BME280;49201;53.426;10.300;2023-06-14T02:25:08;101971.56;;;14.27;100.00
63111;BME280;49201;53.426;10.300;2023-06-14T02:27:34;101976.69;;;14.26;100.00
63111;BME280;49201;53.426;10.300;2023-06-14T02:30:00;101982.81;;;14.29;100.00
63111;BME280;49201;53.426;10.300;2023-06-14T02:32:26;101977.47;;;14.22;100.00
63111;BME280;49201;53.426;10.300;2023-06-14T02:34:53;101985.06;;;14.17;100.00
63111;BME280;49201;53.426;10.300;2023-06-14T02:37:18;101983.31;;;14.16;100.00
63111;BME280;49201;53.426;10.300;2023-06-14T02:39:45;101979.00;;;14.17;100.00
63111;BME280;49201;53.426;10.300;2023-06-14T02:42:10;101973.78;;;14.12;100.00
63111;BME280;49201;53.426;10.300;2023-06-14T02:44:36;101977.19;;;14.11;100.00
63111;BME280;49201;53.426;10.300;2023-06-14T02:47:02;101984.66;;;14.01;100.00
63111;BME280;49201;53.426;10.300;2023-06-14T02:49:28;101980.34;;;14.00;100.00
63111;BME280;49201;53.426;10.300;2023-06-14T02:51:54;101984.53;;;13.95;100.00
63111;BME280;49201;53.426;10.300;2023-06-14T02:54:19;101982.09;;;14.01;100.00
63111;BME280;49201;53.426;10.300;2023-06-14T02:56:45;101989.69;;;13.95;100.00
63111;BME280;49201;53.426;10.300;2023-06-14T02:59:10;101995.69;;;13.95;100.00
63111;BME280;49201;53.426;10.300;2023-06-14T03:01:37;101990.44;;;13.91;100.00
63111;BME280;49201;53.426;10.300;2023-06-14T03:04:09;101986.88;;;13.86;100.00
63111;BME280;49201;53.426;10.300;2023-06-14T03:06:38;101989.50;;;13.89;100.00
63111;BME280;49201;53.426;10.300;2023-06-14T03:09:05;101992.88;;;13.85;100.00
63111;BME280;49201;53.426;10.300;2023-06-14T03:11:31;101995.50;;;13.88;100.00
63111;BME280;49201;53.426;10.300;2023-06-14T03:13:58;101994.66;;;13.87;100.00
63111;BME280;49201;53.426;10.300;2023-06-14T03:16:25;101998.78;;;13.81;100.00
63111;BME280;49201;53.426;10.300;2023-06-14T03:18:55;102000.41;;;13.79;100.00
63111;BME280;49201;53.426;10.300;2023-06-14T03:21:22;102000.47;;;13.80;100.00
63111;BME280;49201;53.426;10.300;2023-06-14T03:23:49;102004.78;;;13.81;100.00
63111;BME280;49201;53.426;10.300;2023-06-14T03:26:15;102008.19;;;13.80;100.00
63111;BME280;49201;53.426;10.300;2023-06-14T03:28:47;102011.66;;;13.81;100.00
63111;BME280;49201;53.426;10.300;2023-06-14T03:31:15;102014.88;;;13.74;100.00
63111;BME280;49201;53.426;10.300;2023-06-14T03:33:42;102019.28;;;13.78;100.00
63111;BME280;49201;53.426;10.300;2023-06-14T03:36:08;102015.81;;;13.76;100.00
63111;BME280;49201;53.426;10.300;2023-06-14T03:38:34;102017.44;;;13.74;100.00
63111;BME280;49201;53.426;10.300;2023-06-14T03:41:00;102016.56;;;13.72;100.00
63111;BME280;49201;53.426;10.300;2023-06-14T03:43:27;102024.34;;;13.75;100.00
63111;BME280;49201;53.426;10.300;2023-06-14T03:45:53;102027.94;;;13.81;100.00
63111;BME280;49201;53.426;10.300;2023-06-14T03:48:20;102034.69;;;13.76;100.00
63111;BME280;49201;53.426;10.300;2023-06-14T03:50:45;102034.81;;;13.81;100.00
63111;BME280;49201;53.426;10.300;2023-06-14T03:53:11;102040.75;;;13.78;100.00
63111;BME280;49201;53.426;10.300;2023-06-14T03:55:40;102041.59;;;13.79;100.00
63111;BME280;49201;53.426;10.300;2023-06-14T03:58:06;102044.13;;;13.77;100.00
63111;BME280;49201;53.426;10.300;2023-06-14T04:00:32;102043.44;;;13.83;100.00
63111;BME280;49201;53.426;10.300;2023-06-14T04:02:57;102051.25;;;13.86;100.00
63111;BME280;49201;53.426;10.300;2023-06-14T04:05:23;102046.06;;;13.84;100.00
63111;BME280;49201;53.426;10.300;2023-06-14T04:07:53;102049.63;;;13.89;100.00
63111;BME280;49201;53.426;10.300;2023-06-14T04:10:21;102048.88;;;13.93;100.00
63111;BME280;49201;53.426;10.300;2023-06-14T04:12:46;102045.41;;;13.93;100.00
63111;BME280;49201;53.426;10.300;2023-06-14T04:15:11;102054.91;;;13.95;100.00
63111;BME280;49201;53.426;10.300;2023-06-14T04:17:38;102057.66;;;14.03;100.00
63111;BME280;49201;53.426;10.300;2023-06-14T04:20:05;102049.28;;;14.10;100.00
63111;BME280;49201;53.426;10.300;2023-06-14T04:22:32;102051.91;;;14.11;100.00
63111;BME280;49201;53.426;10.300;2023-06-14T04:24:58;102051.19;;;14.18;100.00
63111;BME280;49201;53.426;10.300;2023-06-14T04:27:26;102052.34;;;14.28;100.00
63111;BME280;49201;53.426;10.300;2023-06-14T04:29:53;102054.19;;;14.33;100.00
63111;BME280;49201;53.426;10.300;2023-06-14T04:32:24;102055.19;;;14.40;100.00
63111;BME280;49201;53.426;10.300;2023-06-14T04:34:55;102056.19;;;14.46;100.00
63111;BME280;49201;53.426;10.300;2023-06-14T04:37:21;102064.91;;;14.51;100.00
63111;BME280;49201;53.426;10.300;2023-06-14T04:39:48;102061.56;;;14.55;100.00
63111;BME280;49201;53.426;10.300;2023-06-14T04:42:14;102068.56;;;14.61;100.00
63111;BME280;49201;53.426;10.300;2023-06-14T04:44:43;102062.72;;;14.68;100.00
63111;BME280;49201;53.426;10.300;2023-06-14T04:47:10;102071.53;;;14.77;100.00
63111;BME280;49201;53.426;10.300;2023-06-14T04:49:38;102064.88;;;14.87;100.00
63111;BME280;49201;53.426;10.300;2023-06-14T04:52:05;102061.66;;;14.97;100.00
63111;BME280;49201;53.426;10.300;2023-06-14T04:54:34;102066.84;;;15.00;100.00
63111;BME280;49201;53.426;10.300;2023-06-14T04:57:06;102071.47;;;15.14;100.00
63111;BME280;49201;53.426;10.300;2023-06-14T04:59:32;102070.03;;;15.28;100.00
63111;BME280;49201;53.426;10.300;2023-06-14T05:02:01;102065.91;;;15.35;100.00
63111;BME280;49201;53.426;10.300;2023-06-14T05:04:27;102075.56;;;15.45;100.00
63111;BME280;49201;53.426;10.300;2023-06-14T05:06:53;102068.00;;;15.54;100.00
63111;BME280;49201;53.426;10.300;2023-06-14T05:09:22;102059.63;;;15.67;100.00
63111;BME280;49201;53.426;10.300;2023-06-14T05:11:49;102067.63;;;15.79;100.00
63111;BME280;49201;53.426;10.300;2023-06-14T05:14:15;102071.28;;;15.91;100.00
63111;BME280;49201;53.426;10.300;2023-06-14T05:16:41;102068.03;;;16.03;100.00
63111;BME280;49201;53.426;10.300;2023-06-14T05:19:08;102067.34;;;16.13;100.00
63111;BME280;49201;53.426;10.300;2023-06-14T05:21:33;102071.75;;;16.18;100.00
63111;BME280;49201;53.426;10.300;2023-06-14T05:24:00;102069.34;;;16.30;100.00
63111;BME280;49201;53.426;10.300;2023-06-14T05:26:26;102069.50;;;16.39;100.00
63111;BME280;49201;53.426;10.300;2023-06-14T05:28:58;102065.38;;;16.49;100.00
63111;BME280;49201;53.426;10.300;2023-06-14T05:31:26;102065.50;;;16.58;100.00
63111;BME280;49201;53.426;10.300;2023-06-14T05:33:52;102064.72;;;16.65;100.00
63111;BME280;49201;53.426;10.300;2023-06-14T05:36:18;102065.91;;;16.85;100.00
63111;BME280;49201;53.426;10.300;2023-06-14T05:38:45;102056.56;;;16.96;100.00
63111;BME280;49201;53.426;10.300;2023-06-14T05:41:10;102050.72;;;17.10;100.00
63111;BME280;49201;53.426;10.300;2023-06-14T05:43:36;102060.31;;;17.20;100.00
63111;BME280;49201;53.426;10.300;2023-06-14T05:46:01;102048.22;;;17.19;100.00
63111;BME280;49201;53.426;10.300;2023-06-14T05:48:28;102058.56;;;17.21;100.00
63111;BME280;49201;53.426;10.300;2023-06-14T05:50:54;102052.75;;;17.37;100.00
63111;BME280;49201;53.426;10.300;2023-06-14T05:53:19;102040.88;;;17.52;100.00
63111;BME280;49201;53.426;10.300;2023-06-14T05:55:45;101992.59;;;17.62;100.00
63111;BME280;49201;53.426;10.300;2023-06-14T05:58:10;102001.31;;;17.71;100.00
63111;BME280;49201;53.426;10.300;2023-06-14T06:00:36;101995.31;;;17.78;100.00
63111;BME280;49201;53.426;10.300;2023-06-14T06:03:01;102003.22;;;17.95;100.00
63111;BME280;49201;53.426;10.300;2023-06-14T06:05:27;101995.56;;;18.08;100.00
63111;BME280;49201;53.426;10.300;2023-06-14T06:07:52;101980.88;;;18.06;100.00
63111;BME280;49201;53.426;10.300;2023-06-14T06:10:18;101975.75;;;18.19;100.00
63111;BME280;49201;53.426;10.300;2023-06-14T06:12:43;101955.06;;;18.22;100.00
63111;BME280;49201;53.426;10.300;2023-06-14T06:15:09;101925.75;;;18.34;100.00
63111;BME280;49201;53.426;10.300;2023-06-14T06:17:37;101900.72;;;18.40;100.00
63111;BME280;49201;53.426;10.300;2023-06-14T06:20:04;101911.16;;;18.51;100.00
63111;BME280;49201;53.426;10.300;2023-06-14T06:22:31;101919.00;;;18.72;100.00
63111;BME280;49201;53.426;10.300;2023-06-14T06:24:56;101907.78;;;18.76;100.00
63111;BME280;49201;53.426;10.300;2023-06-14T06:27:21;101912.16;;;18.90;100.00
63111;BME280;49201;53.426;10.300;2023-06-14T06:29:47;101906.06;;;18.90;100.00
63111;BME280;49201;53.426;10.300;2023-06-14T06:32:14;101875.81;;;19.13;100.00
63111;BME280;49201;53.426;10.300;2023-06-14T06:34:40;101865.47;;;19.28;100.00
63111;BME280;49201;53.426;10.300;2023-06-14T06:37:05;101839.50;;;19.23;100.00
63111;BME280;49201;53.426;10.300;2023-06-14T06:39:31;101830.00;;;19.39;100.00
63111;BME280;49201;53.426;10.300;2023-06-14T06:41:56;101834.31;;;19.50;100.00
63111;BME280;49201;53.426;10.300;2023-06-14T06:44:31;101823.88;;;19.61;100.00
63111;BME280;49201;53.426;10.300;2023-06-14T06:46:57;101822.13;;;19.79;100.00
63111;BME280;49201;53.426;10.300;2023-06-14T06:49:23;101803.13;;;19.49;100.00
63111;BME280;49201;53.426;10.300;2023-06-14T06:52:02;101791.78;;;19.74;99.16
63111;BME280;49201;53.426;10.300;2023-06-14T06:54:28;101806.50;;;19.90;99.53
63111;BME280;49201;53.426;10.300;2023-06-14T06:56:53;101808.22;;;19.88;98.24
63111;BME280;49201;53.426;10.300;2023-06-14T06:59:19;101821.25;;;19.83;99.69
63111;BME280;49201;53.426;10.300;2023-06-14T07:01:46;101812.50;;;20.08;99.58
63111;BME280;49201;53.426;10.300;2023-06-14T07:04:12;101825.44;;;20.29;98.83
63111;BME280;49201;53.426;10.300;2023-06-14T07:06:37;101763.00;;;20.29;89.25
63111;BME280;49201;53.426;10.300;2023-06-14T07:09:03;101786.31;;;20.46;91.89
63111;BME280;49201;53.426;10.300;2023-06-14T07:11:30;101793.19;;;20.57;91.60
63111;BME280;49201;53.426;10.300;2023-06-14T07:13:56;101793.06;;;20.77;88.81
63111;BME280;49201;53.426;10.300;2023-06-14T07:16:21;101819.06;;;20.81;94.47
63111;BME280;49201;53.426;10.300;2023-06-14T07:18:47;101815.53;;;20.93;92.64
63111;BME280;49201;53.426;10.300;2023-06-14T07:21:12;101779.97;;;20.90;86.58
63111;BME280;49201;53.426;10.300;2023-06-14T07:23:38;101792.88;;;21.05;86.75
63111;BME280;49201;53.426;10.300;2023-06-14T07:26:03;101794.56;;;21.11;87.21
63111;BME280;49201;53.426;10.300;2023-06-14T07:28:29;101818.78;;;21.22;90.42
63111;BME280;49201;53.426;10.300;2023-06-14T07:30:54;101774.31;;;21.41;81.43
63111;BME280;49201;53.426;10.300;2023-06-14T07:33:20;101774.03;;;21.67;81.07
63111;BME280;49201;53.426;10.300;2023-06-14T07:35:45;101794.91;;;21.64;82.54
63111;BME280;49201;53.426;10.300;2023-06-14T07:38:11;101767.09;;;21.64;77.07
63111;BME280;49201;53.426;10.300;2023-06-14T07:40:36;101797.41;;;21.77;80.75
63111;BME280;49201;53.426;10.300;2023-06-14T07:43:02;101790.22;;;21.99;77.70
63111;BME280;49201;53.426;10.300;2023-06-14T07:45:27;101817.09;;;22.05;77.86
63111;BME280;49201;53.426;10.300;2023-06-14T07:47:53;101814.50;;;22.02;76.67
63111;BME280;49201;53.426;10.300;2023-06-14T07:50:19;101817.81;;;22.18;75.11
63111;BME280;49201;53.426;10.300;2023-06-14T07:52:45;101816.81;;;22.26;68.92
63111;BME280;49201;53.426;10.300;2023-06-14T07:55:10;101828.81;;;22.39;69.04
63111;BME280;49201;53.426;10.300;2023-06-14T07:57:36;101846.91;;;22.58;69.04
63111;BME280;49201;53.426;10.300;2023-06-14T08:00:03;101843.34;;;22.65;67.45
63111;BME280;49201;53.426;10.300;2023-06-14T08:02:37;101841.50;;;22.71;66.62
63111;BME280;49201;53.426;10.300;2023-06-14T08:05:03;101849.91;;;22.90;65.09
63111;BME280;49201;53.426;10.300;2023-06-14T08:07:28;101863.53;;;23.11;66.61
63111;BME280;49201;53.426;10.300;2023-06-14T08:09:54;101870.16;;;22.76;64.72
63111;BME280;49201;53.426;10.300;2023-06-14T08:12:19;101880.34;;;22.94;65.54
63111;BME280;49201;53.426;10.300;2023-06-14T08:14:44;101853.81;;;23.22;61.84
63111;BME280;49201;53.426;10.300;2023-06-14T08:17:10;101845.16;;;23.16;58.50
63111;BME280;49201;53.426;10.300;2023-06-14T08:19:35;101856.78;;;23.51;59.32
63111;BME280;49201;53.426;10.300;2023-06-14T08:22:02;101866.44;;;23.48;59.26
63111;BME280;49201;53.426;10.300;2023-06-14T08:24:29;101858.78;;;23.86;57.57
63111;BME280;49201;53.426;10.300;2023-06-14T08:26:54;101863.00;;;23.94;56.04
63111;BME280;49201;53.426;10.300;2023-06-14T08:29:19;101863.31;;;23.76;55.12
63111;BME280;49201;53.426;10.300;2023-06-14T08:31:47;101907.44;;;23.99;58.63
63111;BME280;49201;53.426;10.300;2023-06-14T08:34:12;101886.19;;;24.12;57.19
63111;BME280;49201;53.426;10.300;2023-06-14T08:36:38;101870.38;;;24.18;54.91
63111;BME280;49201;53.426;10.300;2023-06-14T08:39:03;101888.28;;;24.39;56.47
63111;BME280;49201;53.426;10.300;2023-06-14T08:41:29;101855.19;;;24.35;54.24
63111;BME280;49201;53.426;10.300;2023-06-14T08:43:55;101854.19;;;24.41;53.25
63111;BME280;49201;53.426;10.300;2023-06-14T08:46:21;101856.84;;;24.39;51.93
63111;BME280;49201;53.426;10.300;2023-06-14T08:48:51;101862.78;;;24.49;52.67
63111;BME280;49201;53.426;10.300;2023-06-14T08:51:20;101854.59;;;24.64;51.25
63111;BME280;49201;53.426;10.300;2023-06-14T08:53:55;101851.97;;;24.65;50.19
63111;BME280;49201;53.426;10.300;2023-06-14T08:56:27;101881.00;;;24.93;51.01
63111;BME280;49201;53.426;10.300;2023-06-14T08:58:53;101854.38;;;25.11;50.05
63111;BME280;49201;53.426;10.300;2023-06-14T09:01:20;101866.66;;;25.09;49.33
63111;BME280;49201;53.426;10.300;2023-06-14T09:03:48;101870.25;;;25.05;48.87
63111;BME280;49201;53.426;10.300;2023-06-14T09:06:14;101865.09;;;25.00;49.42
63111;BME280;49201;53.426;10.300;2023-06-14T09:08:44;101872.03;;;25.41;49.04
63111;BME280;49201;53.426;10.300;2023-06-14T09:11:14;101855.94;;;25.53;48.46
63111;BME280;49201;53.426;10.300;2023-06-14T09:13:40;101898.38;;;25.35;50.18
63111;BME280;49201;53.426;10.300;2023-06-14T09:16:06;101876.41;;;25.40;48.73
63111;BME280;49201;53.426;10.300;2023-06-14T09:18:39;101876.81;;;25.22;49.19
63111;BME280;49201;53.426;10.300;2023-06-14T09:21:07;101876.06;;;25.86;49.24
63111;BME280;49201;53.426;10.300;2023-06-14T09:23:42;101875.34;;;25.79;48.34
63111;BME280;49201;53.426;10.300;2023-06-14T09:26:11;101885.16;;;25.41;48.95
63111;BME280;49201;53.426;10.300;2023-06-14T09:28:44;101890.81;;;24.85;49.36
63111;BME280;49201;53.426;10.300;2023-06-14T09:31:11;101906.41;;;24.91;49.89
63111;BME280;49201;53.426;10.300;2023-06-14T09:33:37;101875.75;;;25.66;48.18
63111;BME280;49201;53.426;10.300;2023-06-14T09:36:04;101852.72;;;26.07;46.61
63111;BME280;49201;53.426;10.300;2023-06-14T09:38:30;101940.25;;;26.09;47.55
63111;BME280;49201;53.426;10.300;2023-06-14T09:40:58;101919.97;;;26.14;45.44
63111;BME280;49201;53.426;10.300;2023-06-14T09:43:24;101954.50;;;25.64;46.58
63111;BME280;49201;53.426;10.300;2023-06-14T09:45:54;101940.53;;;24.89;46.37
63111;BME280;49201;53.426;10.300;2023-06-14T09:48:20;101960.75;;;25.22;47.21
63111;BME280;49201;53.426;10.300;2023-06-14T09:50:46;101972.28;;;25.53;47.79
63111;BME280;49201;53.426;10.300;2023-06-14T09:53:13;101979.13;;;26.29;48.74
63111;BME280;49201;53.426;10.300;2023-06-14T09:55:41;101932.91;;;25.55;46.42
63111;BME280;49201;53.426;10.300;2023-06-14T09:58:08;101951.66;;;25.73;47.79
63111;BME280;49201;53.426;10.300;2023-06-14T10:00:35;101946.22;;;25.81;48.33
63111;BME280;49201;53.426;10.300;2023-06-14T10:03:28;101934.94;;;25.42;47.06
63111;BME280;49201;53.426;10.300;2023-06-14T10:05:55;101927.50;;;25.61;46.58
63111;BME280;49201;53.426;10.300;2023-06-14T10:08:27;101948.22;;;25.35;47.80
63111;BME280;49201;53.426;10.300;2023-06-14T10:10:56;101938.50;;;25.40;47.60
63111;BME280;49201;53.426;10.300;2023-06-14T10:13:22;101931.13;;;25.89;47.32
63111;BME280;49201;53.426;10.300;2023-06-14T10:16:04;101919.72;;;25.56;46.38
63111;BME280;49201;53.426;10.300;2023-06-14T10:18:49;101925.91;;;25.54;45.88
63111;BME280;49201;53.426;10.300;2023-06-14T10:21:23;101940.66;;;26.26;47.16
63111;BME280;49201;53.426;10.300;2023-06-14T10:23:51;101899.91;;;26.71;44.30
63111;BME280;49201;53.426;10.300;2023-06-14T10:26:19;101910.28;;;26.77;44.34
63111;BME280;49201;53.426;10.300;2023-06-14T10:29:09;101942.34;;;26.29;45.10
63111;BME280;49201;53.426;10.300;2023-06-14T10:31:42;101901.03;;;26.64;43.16
63111;BME280;49201;53.426;10.300;2023-06-14T10:34:08;101913.22;;;27.23;43.41
63111;BME280;49201;53.426;10.300;2023-06-14T10:36:33;101903.50;;;27.25;42.49
63111;BME280;49201;53.426;10.300;2023-06-14T10:41:29;101927.50;;;26.87;42.95
63111;BME280;49201;53.426;10.300;2023-06-14T10:44:31;101941.75;;;26.18;43.19
63111;BME280;49201;53.426;10.300;2023-06-14T10:47:00;101936.38;;;25.89;43.62
63111;BME280;49201;53.426;10.300;2023-06-14T10:49:43;101949.88;;;25.75;44.19
63111;BME280;49201;53.426;10.300;2023-06-14T10:52:14;101916.88;;;26.61;43.57
63111;BME280;49201;53.426;10.300;2023-06-14T10:55:02;101914.00;;;26.08;44.19
63111;BME280;49201;53.426;10.300;2023-06-14T10:57:29;101902.75;;;26.35;42.76
63111;BME280;49201;53.426;10.300;2023-06-14T10:59:58;101896.50;;;26.97;43.30
63111;BME280;49201;53.426;10.300;2023-06-14T11:02:46;101900.44;;;26.53;43.37
63111;BME280;49201;53.426;10.300;2023-06-14T11:05:23;101911.22;;;26.14;42.46
63111;BME280;49201;53.426;10.300;2023-06-14T11:10:40;101886.69;;;25.81;41.85
63111;BME280;49201;53.426;10.300;2023-06-14T11:13:07;101915.34;;;25.90;42.86
63111;BME280;49201;53.426;10.300;2023-06-14T11:15:37;101889.41;;;25.78;41.85
63111;BME280;49201;53.426;10.300;2023-06-14T11:18:05;101906.19;;;26.05;43.41
63111;BME280;49201;53.426;10.300;2023-06-14T11:20:32;101893.94;;;25.72;42.70
63111;BME280;49201;53.426;10.300;2023-06-14T11:22:59;101901.75;;;25.75;43.48
63111;BME280;49201;53.426;10.300;2023-06-14T11:25:26;101888.59;;;25.76;43.27
63111;BME280;49201;53.426;10.300;2023-06-14T11:27:54;101901.13;;;25.99;43.99
63111;BME280;49201;53.426;10.300;2023-06-14T11:30:23;101874.25;;;26.21;42.97
63111;BME280;49201;53.426;10.300;2023-06-14T11:32:50;101873.66;;;25.78;42.20
63111;BME280;49201;53.426;10.300;2023-06-14T11:35:16;101912.84;;;26.48;43.24
63111;BME280;49201;53.426;10.300;2023-06-14T11:37:42;101882.00;;;26.55;42.24
63111;BME280;49201;53.426;10.300;2023-06-14T11:40:10;101868.84;;;26.55;41.31
63111;BME280;49201;53.426;10.300;2023-06-14T11:42:38;101864.50;;;26.25;41.29
63111;BME280;49201;53.426;10.300;2023-06-14T11:45:07;101891.81;;;26.19;41.60
63111;BME280;49201;53.426;10.300;2023-06-14T11:47:36;101882.19;;;26.18;42.26
63111;BME280;49201;53.426;10.300;2023-06-14T11:50:03;101872.09;;;26.35;42.05
63111;BME280;49201;53.426;10.300;2023-06-14T11:52:29;101847.69;;;26.88;40.68
63111;BME280;49201;53.426;10.300;2023-06-14T11:54:55;101838.88;;;26.89;40.07
63111;BME280;49201;53.426;10.300;2023-06-14T11:57:21;101871.94;;;26.98;41.42
63111;BME280;49201;53.426;10.300;2023-06-14T11:59:46;101848.34;;;26.67;39.99
63111;BME280;49201;53.426;10.300;2023-06-14T12:02:16;101867.69;;;26.94;41.48
63111;BME280;49201;53.426;10.300;2023-06-14T12:04:44;101846.03;;;27.64;39.13
63111;BME280;49201;53.426;10.300;2023-06-14T12:07:13;101842.75;;;27.83;38.45
63111;BME280;49201;53.426;10.300;2023-06-14T12:12:21;101836.34;;;27.90;36.90
63111;BME280;49201;53.426;10.300;2023-06-14T12:14:47;101839.88;;;27.89;37.57
63111;BME280;49201;53.426;10.300;2023-06-14T12:17:13;101872.28;;;27.13;39.82
63111;BME280;49201;53.426;10.300;2023-06-14T12:19:42;101925.44;;;27.26;41.48
63111;BME280;49201;53.426;10.300;2023-06-14T12:22:12;101949.63;;;27.37;42.97
63111;BME280;49201;53.426;10.300;2023-06-14T12:24:39;101905.03;;;27.84;41.37
63111;BME280;49201;53.426;10.300;2023-06-14T12:27:07;101894.53;;;28.32;41.57
63111;BME280;49201;53.426;10.300;2023-06-14T12:29:33;101871.53;;;27.88;40.32
63111;BME280;49201;53.426;10.300;2023-06-14T12:31:59;101883.22;;;27.55;41.75
63111;BME280;49201;53.426;10.300;2023-06-14T12:34:24;101842.78;;;27.31;38.74
63111;BME280;49201;53.426;10.300;2023-06-14T12:36:51;101829.63;;;27.56;37.22
63111;BME280;49201;53.426;10.300;2023-06-14T12:39:18;101821.13;;;27.98;37.00
63111;BME280;49201;53.426;10.300;2023-06-14T12:41:44;101817.09;;;27.88;35.89
63111;BME280;49201;53.426;10.300;2023-06-14T12:44:10;101828.63;;;28.09;36.92